Time;durP1;ratioP1;P1;durP2;ratioP2;P2;SDS_P1;SDS_P2;PMS_P1;PMS_P2;Temp;Humidity;BMP_temperature;BMP_pressure;BME280_temperature;BME280_humidity;BME280_pressure;Samples;Min_cycle;Max_cycle;Signal;HPM_P1;HPM_P2
2023/09/30 00:01:30;;;;;;;7.03;5.65;;;19.90;96.70;;;;;;4944685;28;20051;-78
2023/09/30 00:03:59;;;;;;;7.78;5.78;;;19.80;96.70;;;;;;4994072;28;20049;-79
2023/09/30 00:06:28;;;;;;;7.82;6.03;;;19.70;96.70;;;;;;5007574;28;20459;-80
2023/09/30 00:08:57;;;;;;;10.23;6.30;;;19.60;96.70;;;;;;5008219;28;20072;-79
2023/09/30 00:11:25;;;;;;;6.35;5.38;;;19.50;96.70;;;;;;5006936;28;20407;-79
2023/09/30 00:13:53;;;;;;;7.97;5.35;;;19.60;96.70;;;;;;5013161;28;20152;-80
2023/09/30 00:16:22;;;;;;;8.80;5.78;;;19.60;96.70;;;;;;5006477;28;20574;-80
2023/09/30 00:18:50;;;;;;;7.72;5.20;;;19.70;96.70;;;;;;5005997;28;20088;-80
2023/09/30 00:21:19;;;;;;;8.18;5.32;;;19.60;96.70;;;;;;5005463;28;20453;-80
2023/09/30 00:23:47;;;;;;;7.40;5.53;;;19.60;96.70;;;;;;5005833;28;20034;-79
2023/09/30 00:26:15;;;;;;;6.82;5.50;;;19.60;96.70;;;;;;5006453;28;20042;-80
2023/09/30 00:28:46;;;;;;;7.47;5.90;;;19.50;96.70;;;;;;4993420;28;20414;-80
2023/09/30 00:31:14;;;;;;;8.93;6.10;;;19.40;96.70;;;;;;4989464;28;20061;-80
2023/09/30 00:33:44;;;;;;;9.43;6.03;;;19.40;96.70;;;;;;5008536;28;20050;-80
2023/09/30 00:36:12;;;;;;;6.25;5.55;;;19.30;96.70;;;;;;4989441;28;20058;-81
2023/09/30 00:38:40;;;;;;;7.10;4.93;;;19.30;96.70;;;;;;5005768;28;20040;-79
2023/09/30 00:41:10;;;;;;;7.97;5.57;;;19.30;96.70;;;;;;4989008;28;20054;-81
2023/09/30 00:43:37;;;;;;;8.18;5.53;;;19.30;96.70;;;;;;5004179;28;20045;-79
2023/09/30 00:46:15;;;;;;;5.22;4.72;;;19.20;96.70;;;;;;5005503;28;20495;-80
2023/09/30 00:48:45;;;;;;;5.90;4.93;;;19.10;96.70;;;;;;5013822;28;20054;-79
2023/09/30 00:51:14;;;;;;;7.10;5.20;;;19.10;96.70;;;;;;5004598;28;20045;-79
2023/09/30 00:53:42;;;;;;;6.70;4.93;;;19.10;96.70;;;;;;5010637;28;20516;-79
2023/09/30 00:56:10;;;;;;;8.88;5.25;;;19.10;96.70;;;;;;5004945;28;20057;-80
2023/09/30 00:58:39;;;;;;;7.47;5.22;;;19.00;96.70;;;;;;4992850;28;20052;-79
2023/09/30 01:01:07;;;;;;;5.82;4.60;;;18.90;96.70;;;;;;5010263;28;20111;-80
2023/09/30 01:03:36;;;;;;;7.97;5.63;;;18.90;96.70;;;;;;5007260;28;20501;-80
2023/09/30 01:06:09;;;;;;;7.88;5.60;;;18.90;96.70;;;;;;5012679;28;20542;-80
2023/09/30 01:08:38;;;;;;;10.32;5.75;;;18.90;96.70;;;;;;4994549;28;20057;-79
2023/09/30 01:11:06;;;;;;;5.97;5.18;;;18.90;96.70;;;;;;5005273;28;20710;-79
2023/09/30 01:13:34;;;;;;;6.43;4.85;;;18.90;96.70;;;;;;4989166;28;20532;-80
2023/09/30 01:16:06;;;;;;;10.57;5.88;;;18.90;96.70;;;;;;5005725;28;20451;-80
2023/09/30 01:18:34;;;;;;;7.68;5.70;;;18.90;96.70;;;;;;5006506;28;20046;-79
2023/09/30 01:21:04;;;;;;;6.10;4.82;;;18.90;96.70;;;;;;5007839;28;20042;-80
2023/09/30 01:23:37;;;;;;;7.70;5.40;;;18.90;96.70;;;;;;5004324;28;20489;-80
2023/09/30 01:26:07;;;;;;;7.43;5.28;;;18.90;96.70;;;;;;5011633;28;20065;-80
2023/09/30 01:28:36;;;;;;;6.32;5.43;;;18.90;96.70;;;;;;5007542;28;20785;-79
2023/09/30 01:31:05;;;;;;;9.65;5.95;;;18.90;96.70;;;;;;4988273;28;20200;-79
2023/09/30 01:33:35;;;;;;;6.70;5.45;;;18.80;96.70;;;;;;5007722;28;20508;-79
2023/09/30 01:36:03;;;;;;;6.50;5.75;;;18.80;96.70;;;;;;5006353;28;20069;-80
2023/09/30 01:38:33;;;;;;;8.85;5.93;;;18.70;96.70;;;;;;5005151;28;21132;-80
2023/09/30 01:41:01;;;;;;;8.68;5.80;;;18.70;96.70;;;;;;4988261;28;20053;-79
2023/09/30 01:43:29;;;;;;;7.55;5.50;;;18.70;96.70;;;;;;5003979;28;20057;-78
2023/09/30 01:45:58;;;;;;;7.55;5.65;;;18.80;96.70;;;;;;4988523;28;20529;-79
2023/09/30 01:48:26;;;;;;;8.02;5.75;;;18.80;96.70;;;;;;5004403;28;20045;-80
2023/09/30 01:50:54;;;;;;;6.22;5.47;;;18.70;96.70;;;;;;5006510;28;20411;-79
2023/09/30 01:53:22;;;;;;;7.75;5.45;;;18.60;96.70;;;;;;4987882;28;20128;-80
2023/09/30 01:55:53;;;;;;;8.00;5.57;;;18.60;96.70;;;;;;5005361;28;20045;-80
2023/09/30 01:58:21;;;;;;;8.38;5.63;;;18.60;96.70;;;;;;4989645;28;20046;-80
2023/09/30 02:00:49;;;;;;;7.68;4.90;;;18.50;96.70;;;;;;5008215;28;20058;-80
2023/09/30 02:03:17;;;;;;;6.38;5.45;;;18.50;96.70;;;;;;5000980;28;20129;-81
2023/09/30 02:05:46;;;;;;;6.53;4.75;;;18.50;96.70;;;;;;4991680;28;20045;-80
2023/09/30 02:08:18;;;;;;;5.63;4.85;;;18.40;96.70;;;;;;5008442;28;20042;-81
2023/09/30 02:10:46;;;;;;;6.28;5.32;;;18.40;96.70;;;;;;5012546;28;20054;-81
2023/09/30 02:13:16;;;;;;;8.50;5.00;;;18.40;96.70;;;;;;5007659;28;20495;-80
2023/09/30 02:15:47;;;;;;;7.10;4.90;;;18.30;96.70;;;;;;5023059;28;20145;-81
2023/09/30 02:18:15;;;;;;;5.93;4.60;;;18.30;96.70;;;;;;5008069;28;20052;-80
2023/09/30 02:20:44;;;;;;;7.35;4.65;;;18.20;96.70;;;;;;5007649;28;20132;-81
2023/09/30 02:23:12;;;;;;;6.38;4.85;;;18.20;96.70;;;;;;5009472;28;20423;-80
2023/09/30 02:25:41;;;;;;;6.75;5.07;;;18.20;96.70;;;;;;4992048;28;20050;-79
2023/09/30 02:28:10;;;;;;;6.40;4.90;;;18.10;96.70;;;;;;4994120;28;20475;-80
2023/09/30 02:30:39;;;;;;;6.80;4.93;;;18.10;96.70;;;;;;5007219;28;20046;-81
2023/09/30 02:33:07;;;;;;;8.10;4.95;;;18.10;96.70;;;;;;5007226;28;20053;-79
2023/09/30 02:35:38;;;;;;;7.88;5.32;;;18.10;96.70;;;;;;5007308;28;20165;-80
2023/09/30 02:38:06;;;;;;;13.48;6.30;;;18.10;96.70;;;;;;5007562;28;20900;-80
2023/09/30 02:40:35;;;;;;;7.70;5.60;;;18.10;96.70;;;;;;5010200;28;20487;-80
2023/09/30 02:43:04;;;;;;;9.13;6.43;;;18.10;96.70;;;;;;5007114;28;20054;-79
2023/09/30 02:45:32;;;;;;;7.53;5.88;;;18.10;96.70;;;;;;5008615;28;20062;-80
2023/09/30 02:48:01;;;;;;;9.57;5.97;;;18.10;96.70;;;;;;5007415;28;20488;-80
2023/09/30 02:50:29;;;;;;;9.15;5.93;;;18.10;96.70;;;;;;5006846;28;20050;-80
2023/09/30 02:53:00;;;;;;;7.30;5.63;;;18.10;96.70;;;;;;5008491;28;20042;-81
2023/09/30 02:55:28;;;;;;;8.30;6.32;;;18.10;96.70;;;;;;5007504;28;20153;-82
2023/09/30 02:57:56;;;;;;;7.75;6.30;;;18.00;96.70;;;;;;5010396;28;20065;-80
2023/09/30 03:00:25;;;;;;;7.35;5.75;;;17.90;96.70;;;;;;5007070;28;20054;-80
2023/09/30 03:02:55;;;;;;;8.48;5.90;;;17.90;96.70;;;;;;5007137;28;20051;-80
2023/09/30 03:05:27;;;;;;;8.48;5.95;;;17.90;96.70;;;;;;5008464;28;20038;-80
2023/09/30 03:07:55;;;;;;;7.70;5.88;;;17.80;96.70;;;;;;5008593;28;20069;-80
2023/09/30 03:10:26;;;;;;;9.13;6.32;;;17.90;96.70;;;;;;5006594;28;20042;-80
2023/09/30 03:12:55;;;;;;;8.85;5.75;;;17.90;96.70;;;;;;5006559;28;20046;-80
2023/09/30 03:15:23;;;;;;;7.45;6.00;;;17.80;96.70;;;;;;5009387;28;20045;-80
2023/09/30 03:17:51;;;;;;;10.05;5.93;;;17.80;96.70;;;;;;5008983;28;20054;-79
2023/09/30 03:20:21;;;;;;;6.32;5.50;;;17.70;96.70;;;;;;5006418;28;20049;-80
2023/09/30 03:22:51;;;;;;;8.63;5.68;;;17.70;96.70;;;;;;5014631;28;20137;-80
2023/09/30 03:25:22;;;;;;;10.00;5.88;;;17.60;96.70;;;;;;4991338;28;20508;-80
2023/09/30 03:27:50;;;;;;;10.65;7.95;;;17.60;96.70;;;;;;5006439;28;20052;-80
2023/09/30 03:30:20;;;;;;;13.65;8.60;;;17.60;96.70;;;;;;5008614;28;20046;-81
2023/09/30 03:32:48;;;;;;;13.02;10.55;;;17.60;96.70;;;;;;5006491;28;20046;-80
2023/09/30 03:35:16;;;;;;;12.15;9.07;;;17.50;96.70;;;;;;5021244;28;20040;-80
2023/09/30 03:37:47;;;;;;;11.60;7.70;;;17.50;96.70;;;;;;5015772;28;20507;-79
2023/09/30 03:40:19;;;;;;;9.70;6.75;;;17.50;96.70;;;;;;5006506;28;20046;-79
2023/09/30 03:42:51;;;;;;;9.45;6.55;;;17.50;96.70;;;;;;5008148;28;20836;-80
2023/09/30 03:45:19;;;;;;;9.15;6.40;;;17.40;96.70;;;;;;5010191;28;20161;-80
2023/09/30 03:47:48;;;;;;;8.45;6.07;;;17.40;96.70;;;;;;5007420;28;20546;-79
2023/09/30 03:50:17;;;;;;;7.35;6.20;;;17.40;96.70;;;;;;5007741;28;20510;-80
2023/09/30 03:52:45;;;;;;;10.23;6.25;;;17.30;96.70;;;;;;5007345;28;20050;-81
2023/09/30 03:55:20;;;;;;;8.80;6.22;;;17.30;96.70;;;;;;4990123;28;20512;-80
2023/09/30 03:57:51;;;;;;;12.90;9.35;;;17.30;96.70;;;;;;5006881;28;20047;-80
2023/09/30 04:00:19;;;;;;;17.35;11.98;;;17.40;96.70;;;;;;5010856;28;20058;-80
2023/09/30 04:02:49;;;;;;;17.77;10.25;;;17.40;96.70;;;;;;5006315;28;20104;-80
2023/09/30 04:05:19;;;;;;;12.65;8.35;;;17.30;96.70;;;;;;5008271;28;20399;-80
2023/09/30 04:07:47;;;;;;;11.25;8.13;;;17.30;96.70;;;;;;5007734;28;20042;-80
2023/09/30 04:10:25;;;;;;;9.95;6.68;;;17.30;96.70;;;;;;5007463;28;20046;-79
2023/09/30 04:12:54;;;;;;;12.30;6.28;;;17.40;96.70;;;;;;5007331;28;20508;-79
2023/09/30 04:15:22;;;;;;;9.20;6.10;;;17.40;96.70;;;;;;5005844;28;20042;-80
2023/09/30 04:17:51;;;;;;;7.78;5.13;;;17.40;96.70;;;;;;5014116;28;20057;-80
2023/09/30 04:20:23;;;;;;;9.10;6.20;;;17.30;96.70;;;;;;5007756;28;20199;-81
2023/09/30 04:22:55;;;;;;;7.13;5.43;;;17.30;96.70;;;;;;5005970;28;20041;-80
2023/09/30 04:25:25;;;;;;;9.13;6.13;;;17.30;96.70;;;;;;5006869;28;20038;-80
2023/09/30 04:27:53;;;;;;;6.90;5.85;;;17.20;96.70;;;;;;4986166;28;20051;-80
2023/09/30 04:30:22;;;;;;;7.85;5.90;;;17.20;96.70;;;;;;5004265;28;20389;-80
2023/09/30 04:32:50;;;;;;;8.48;6.18;;;17.20;96.70;;;;;;5006836;28;20134;-80
2023/09/30 04:35:18;;;;;;;7.00;6.10;;;17.10;96.70;;;;;;5005221;28;20507;-80
2023/09/30 04:37:46;;;;;;;8.85;5.95;;;17.00;96.70;;;;;;5014091;28;20723;-80
2023/09/30 04:40:19;;;;;;;11.07;6.20;;;17.00;96.70;;;;;;5007327;28;20395;-80
2023/09/30 04:42:49;;;;;;;12.10;6.20;;;17.00;96.70;;;;;;5006246;28;20100;-81
2023/09/30 04:45:19;;;;;;;8.57;6.28;;;17.00;96.70;;;;;;5007036;28;20049;-80
2023/09/30 04:47:49;;;;;;;11.13;6.38;;;16.90;96.70;;;;;;4988201;28;20057;-80
2023/09/30 04:50:17;;;;;;;8.93;6.28;;;16.90;96.70;;;;;;5006543;28;20073;-80
2023/09/30 04:52:47;;;;;;;16.73;7.43;;;16.80;96.70;;;;;;5007379;28;20104;-81
2023/09/30 04:55:16;;;;;;;11.73;7.47;;;16.90;96.70;;;;;;5005103;28;20665;-80
2023/09/30 04:57:44;;;;;;;9.40;7.32;;;16.90;96.70;;;;;;5012146;28;20072;-79
2023/09/30 05:00:16;;;;;;;14.95;8.18;;;16.90;96.70;;;;;;4986715;28;20061;-80
2023/09/30 05:02:46;;;;;;;17.70;11.02;;;16.90;96.70;;;;;;4987914;28;20500;-80
2023/09/30 05:05:14;;;;;;;14.00;9.50;;;16.70;96.70;;;;;;5005026;28;20504;-79
2023/09/30 05:07:43;;;;;;;19.25;11.40;;;16.60;96.70;;;;;;5006660;28;20049;-79
2023/09/30 05:10:13;;;;;;;17.05;11.15;;;16.40;96.70;;;;;;5005884;28;20053;-80
2023/09/30 05:12:45;;;;;;;17.85;11.55;;;16.40;96.70;;;;;;5004820;28;20060;-79
2023/09/30 05:15:16;;;;;;;18.67;11.43;;;16.40;96.70;;;;;;5004991;28;20046;-80
2023/09/30 05:17:45;;;;;;;15.98;10.93;;;16.40;96.70;;;;;;5012382;28;20076;-81
2023/09/30 05:20:13;;;;;;;19.73;10.82;;;16.50;96.70;;;;;;5004173;28;20120;-79
2023/09/30 05:22:44;;;;;;;17.70;10.98;;;16.50;96.70;;;;;;5010238;28;20527;-80
2023/09/30 05:25:13;;;;;;;16.67;10.50;;;16.50;96.70;;;;;;4987972;28;20411;-79
2023/09/30 05:27:40;;;;;;;19.35;12.13;;;16.50;96.70;;;;;;5004406;28;20046;-80
2023/09/30 05:30:10;;;;;;;17.40;10.32;;;16.60;96.70;;;;;;5007803;28;20042;-80
2023/09/30 05:32:52;;;;;;;21.42;12.65;;;16.60;96.70;;;;;;5010682;28;20060;-79
2023/09/30 05:35:35;;;;;;;15.45;11.23;;;16.60;96.70;;;;;;5001331;28;20073;-80
2023/09/30 05:38:05;;;;;;;20.73;11.82;;;16.70;96.70;;;;;;4999059;28;20204;-80
2023/09/30 05:40:33;;;;;;;18.88;10.82;;;16.70;96.70;;;;;;5009756;28;20399;-80
2023/09/30 05:43:02;;;;;;;20.75;12.25;;;16.70;96.70;;;;;;5011117;28;20428;-80
2023/09/30 05:45:34;;;;;;;33.30;13.43;;;16.70;96.70;;;;;;5009622;28;20054;-82
2023/09/30 05:48:07;;;;;;;21.15;12.68;;;16.70;96.70;;;;;;5010192;28;20124;-82
2023/09/30 05:50:36;;;;;;;20.73;12.80;;;16.70;96.70;;;;;;5026477;28;20053;-82
2023/09/30 05:53:04;;;;;;;18.13;12.63;;;16.70;96.70;;;;;;4993847;28;20040;-82
2023/09/30 05:55:33;;;;;;;22.90;13.13;;;16.70;96.70;;;;;;5010261;28;20500;-84
2023/09/30 05:58:01;;;;;;;20.73;12.85;;;16.80;96.70;;;;;;5016160;28;20080;-82
2023/09/30 06:00:30;;;;;;;18.35;11.95;;;16.90;96.70;;;;;;5012080;28;20073;-81
2023/09/30 06:02:59;;;;;;;19.08;10.82;;;16.90;96.70;;;;;;5012175;28;20407;-82
2023/09/30 06:05:30;;;;;;;17.27;11.30;;;16.90;96.70;;;;;;5010576;28;20511;-83
2023/09/30 06:08:04;;;;;;;15.82;11.18;;;16.80;96.70;;;;;;4993178;28;20526;-82
2023/09/30 06:10:33;;;;;;;15.60;10.40;;;16.80;96.70;;;;;;5008243;28;20044;-81
2023/09/30 06:13:02;;;;;;;17.02;12.00;;;16.90;96.70;;;;;;5023526;28;20045;-80
2023/09/30 06:15:33;;;;;;;20.55;13.73;;;17.10;96.70;;;;;;5010157;28;20041;-80
2023/09/30 06:18:01;;;;;;;35.97;21.73;;;17.40;96.70;;;;;;5008936;28;20712;-82
2023/09/30 06:20:31;;;;;;;40.10;26.98;;;17.50;96.70;;;;;;4993612;28;20069;-80
2023/09/30 06:23:00;;;;;;;36.92;22.73;;;17.60;96.70;;;;;;5010820;28;20049;-81
2023/09/30 06:25:30;;;;;;;27.35;20.08;;;17.70;96.70;;;;;;5010128;28;20042;-82
2023/09/30 06:27:58;;;;;;;28.70;21.38;;;17.70;96.70;;;;;;5009518;28;20495;-82
2023/09/30 06:30:33;;;;;;;27.77;18.67;;;17.60;96.70;;;;;;5009045;28;20140;-82
2023/09/30 06:33:29;;;;;;;24.45;16.98;;;17.80;96.70;;;;;;4994024;28;20444;-81
2023/09/30 06:36:01;;;;;;;23.73;15.13;;;17.90;96.70;;;;;;4906009;29;20047;-82
2023/09/30 06:38:30;;;;;;;19.40;13.68;;;18.00;96.70;;;;;;4895436;29;20318;-82
2023/09/30 06:40:57;;;;;;;17.83;11.93;;;18.00;96.70;;;;;;4943265;29;20576;-82
2023/09/30 06:43:25;;;;;;;16.65;11.45;;;18.10;96.70;;;;;;4914136;29;20062;-82
2023/09/30 06:45:54;;;;;;;23.17;15.05;;;18.20;96.70;;;;;;4914073;29;20055;-81
2023/09/30 06:48:22;;;;;;;26.08;15.80;;;18.30;96.70;;;;;;4929189;29;20060;-82
2023/09/30 06:50:52;;;;;;;29.15;17.38;;;18.40;96.70;;;;;;4912964;29;20055;-82
2023/09/30 06:53:22;;;;;;;26.65;17.70;;;18.50;96.70;;;;;;4913785;29;20227;-82
2023/09/30 06:55:51;;;;;;;28.55;16.23;;;18.60;96.70;;;;;;4930028;29;20079;-81
2023/09/30 06:58:21;;;;;;;24.05;15.15;;;18.60;96.70;;;;;;4913776;29;20442;-82
2023/09/30 07:00:50;;;;;;;23.25;14.70;;;18.60;96.70;;;;;;4913435;29;20055;-81
2023/09/30 07:03:19;;;;;;;18.45;14.65;;;18.60;96.70;;;;;;4929348;29;20464;-82
2023/09/30 07:05:54;;;;;;;19.58;13.90;;;18.70;96.70;;;;;;4914287;29;20859;-82
2023/09/30 07:08:23;;;;;;;19.05;12.90;;;18.80;96.70;;;;;;4930288;29;20047;-82
2023/09/30 07:10:52;;;;;;;21.58;13.52;;;18.80;96.70;;;;;;4914101;29;20779;-81
2023/09/30 07:13:20;;;;;;;21.20;12.90;;;18.80;96.70;;;;;;4966231;28;20329;-82
2023/09/30 07:15:48;;;;;;;17.65;11.95;;;18.90;96.70;;;;;;5010257;28;20050;-82
2023/09/30 07:18:17;;;;;;;16.58;11.48;;;19.00;96.70;;;;;;5009484;28;20104;-82
2023/09/30 07:20:46;;;;;;;15.85;11.65;;;18.90;96.70;;;;;;5008008;28;20475;-82
2023/09/30 07:23:14;;;;;;;18.42;12.73;;;19.00;96.70;;;;;;5009429;28;20516;-82
2023/09/30 07:25:48;;;;;;;17.05;11.85;;;19.10;96.70;;;;;;5009918;28;20065;-81
2023/09/30 07:28:16;;;;;;;17.98;14.55;;;19.20;96.70;;;;;;5009747;28;20042;-82
2023/09/30 07:30:45;;;;;;;21.55;15.13;;;19.30;96.70;;;;;;5007601;28;20125;-81
2023/09/30 07:33:13;;;;;;;19.30;14.65;;;19.30;96.70;;;;;;5008219;28;20049;-82
2023/09/30 07:35:41;;;;;;;18.85;14.60;;;19.30;96.70;;;;;;5009971;28;20046;-82
2023/09/30 07:38:09;;;;;;;20.90;13.85;;;19.40;96.70;;;;;;4988883;28;20085;-82
2023/09/30 07:40:37;;;;;;;14.40;11.77;;;19.50;96.70;;;;;;5006731;28;20125;-82
2023/09/30 07:43:06;;;;;;;13.15;10.95;;;19.60;96.70;;;;;;5008824;28;20103;-82
2023/09/30 07:45:34;;;;;;;13.77;11.13;;;19.60;96.70;;;;;;5007991;28;20564;-83
2023/09/30 07:48:05;;;;;;;14.70;10.50;;;19.70;96.70;;;;;;4991333;28;20043;-83
2023/09/30 07:50:34;;;;;;;11.93;10.23;;;19.80;96.70;;;;;;5008055;28;20054;-82
2023/09/30 07:53:02;;;;;;;14.88;10.68;;;19.90;96.70;;;;;;5007835;28;20052;-83
2023/09/30 07:55:30;;;;;;;10.90;9.68;;;20.00;96.70;;;;;;5008279;28;20038;-83
2023/09/30 07:58:00;;;;;;;9.90;8.82;;;20.00;96.70;;;;;;4991601;28;20573;-82
2023/09/30 08:00:29;;;;;;;10.32;8.48;;;20.10;96.70;;;;;;5006739;28;20065;-83
2023/09/30 08:03:00;;;;;;;10.63;8.48;;;20.20;96.70;;;;;;5009308;28;20137;-83
2023/09/30 08:05:28;;;;;;;9.70;8.48;;;20.30;96.70;;;;;;4988896;28;20054;-82
2023/09/30 08:07:56;;;;;;;10.55;8.13;;;20.30;96.70;;;;;;5006941;28;20049;-82
2023/09/30 08:10:25;;;;;;;11.82;9.43;;;20.40;96.70;;;;;;4991402;28;20057;-82
2023/09/30 08:12:56;;;;;;;14.25;9.15;;;20.50;96.70;;;;;;5006999;28;20598;-82
2023/09/30 08:15:24;;;;;;;11.77;8.60;;;20.60;96.70;;;;;;5008315;28;20045;-82
2023/09/30 08:17:54;;;;;;;10.82;8.85;;;20.60;96.70;;;;;;5007460;28;20140;-83
2023/09/30 08:20:22;;;;;;;10.75;9.02;;;20.70;96.70;;;;;;4990706;28;20480;-83
2023/09/30 08:22:50;;;;;;;11.85;8.85;;;20.80;96.70;;;;;;5008511;28;20084;-83
2023/09/30 08:25:18;;;;;;;12.05;8.45;;;20.90;96.70;;;;;;5007070;28;20054;-83
2023/09/30 08:27:49;;;;;;;12.52;8.63;;;21.00;96.70;;;;;;5005807;28;20125;-83
2023/09/30 08:30:18;;;;;;;9.60;8.60;;;21.10;96.70;;;;;;5007341;28;20796;-83
2023/09/30 08:32:50;;;;;;;9.40;8.48;;;21.10;96.70;;;;;;4991517;28;20479;-84
2023/09/30 08:35:21;;;;;;;10.35;9.35;;;21.20;96.70;;;;;;5001807;28;20072;-82
2023/09/30 08:37:49;;;;;;;15.10;10.93;;;21.30;96.70;;;;;;5007331;28;20062;-83
2023/09/30 08:40:20;;;;;;;14.30;11.52;;;21.40;96.70;;;;;;4991108;28;20148;-83
2023/09/30 08:42:51;;;;;;;15.00;11.45;;;21.50;96.70;;;;;;5008086;28;20411;-82
2023/09/30 08:45:19;;;;;;;12.15;10.55;;;21.50;96.70;;;;;;5008772;28;20064;-82
2023/09/30 08:47:47;;;;;;;11.75;10.15;;;21.60;96.70;;;;;;5007246;28;20133;-83
2023/09/30 08:50:17;;;;;;;13.25;10.55;;;21.60;96.70;;;;;;5006807;28;20156;-81
2023/09/30 08:52:47;;;;;;;13.00;9.57;;;21.70;96.70;;;;;;5006761;28;20049;-81
2023/09/30 08:55:15;;;;;;;15.35;10.40;;;21.90;96.70;;;;;;5006437;28;20045;-82
2023/09/30 08:57:43;;;;;;;13.57;8.35;;;21.90;96.70;;;;;;5006141;28;20145;-81
2023/09/30 09:00:13;;;;;;;12.10;9.20;;;22.00;96.70;;;;;;4989329;28;20091;-82
2023/09/30 09:02:42;;;;;;;11.32;8.75;;;22.10;96.70;;;;;;4986640;28;20592;-82
2023/09/30 09:05:11;;;;;;;12.07;8.55;;;22.20;96.70;;;;;;5005680;28;20570;-81
2023/09/30 09:07:39;;;;;;;10.00;8.18;;;22.40;96.70;;;;;;5005608;28;20057;-82
2023/09/30 09:10:12;;;;;;;9.75;7.45;;;22.50;96.70;;;;;;5007514;28;20046;-82
2023/09/30 09:12:41;;;;;;;10.95;7.13;;;22.60;96.70;;;;;;5005384;28;20048;-82
2023/09/30 09:15:21;;;;;;;10.27;7.18;;;22.70;96.70;;;;;;5005704;28;20092;-81
2023/09/30 09:17:51;;;;;;;8.23;7.30;;;22.80;96.70;;;;;;5001395;28;20061;-82
2023/09/30 09:20:21;;;;;;;9.00;7.05;;;22.90;96.70;;;;;;5005779;28;20833;-82
2023/09/30 09:22:53;;;;;;;11.02;6.88;;;23.00;96.70;;;;;;5006080;28;20066;-82
2023/09/30 09:25:23;;;;;;;11.65;7.80;;;23.20;96.70;;;;;;5006289;28;20373;-81
2023/09/30 09:27:53;;;;;;;10.65;7.45;;;23.30;96.70;;;;;;4998097;28;20045;-84
2023/09/30 09:30:23;;;;;;;10.75;6.78;;;23.40;96.70;;;;;;5006929;28;20144;-83
2023/09/30 09:32:59;;;;;;;9.32;6.63;;;23.40;96.70;;;;;;5006364;28;20038;-82
2023/09/30 09:35:32;;;;;;;7.93;6.25;;;23.50;96.70;;;;;;5007742;28;20049;-82
2023/09/30 09:38:02;;;;;;;7.80;6.25;;;23.50;96.70;;;;;;5006815;28;20384;-82
2023/09/30 09:40:33;;;;;;;7.80;6.32;;;23.50;96.70;;;;;;5006750;28;20050;-82
2023/09/30 09:43:04;;;;;;;7.38;6.43;;;23.60;96.70;;;;;;4999666;28;20054;-82
2023/09/30 09:45:34;;;;;;;11.85;6.93;;;23.80;96.70;;;;;;5005360;28;20046;-82
2023/09/30 09:48:04;;;;;;;6.60;5.95;;;24.00;96.70;;;;;;5006673;28;20140;-82
2023/09/30 09:50:33;;;;;;;6.35;5.75;;;24.10;96.70;;;;;;4998018;28;20140;-82
2023/09/30 09:53:01;;;;;;;9.20;5.40;;;24.30;96.70;;;;;;5008049;28;20042;-82
2023/09/30 09:55:29;;;;;;;9.45;5.82;;;24.30;96.70;;;;;;5021531;28;20056;-82
2023/09/30 09:58:01;;;;;;;7.50;5.95;;;24.30;96.70;;;;;;5006720;28;20111;-82
2023/09/30 10:00:31;;;;;;;7.30;5.75;;;24.40;96.70;;;;;;5007352;28;20137;-83
2023/09/30 10:02:59;;;;;;;10.23;6.43;;;24.40;96.70;;;;;;5005221;28;20105;-82
2023/09/30 10:05:27;;;;;;;8.70;4.78;;;24.60;96.70;;;;;;5005728;28;20046;-82
2023/09/30 10:08:01;;;;;;;5.40;4.47;;;24.70;96.70;;;;;;4989085;28;20050;-82
2023/09/30 10:10:35;;;;;;;4.85;4.13;;;24.90;96.70;;;;;;5005179;28;20140;-82
2023/09/30 10:13:05;;;;;;;5.93;4.20;;;25.00;96.70;;;;;;5004849;28;20056;-82
2023/09/30 10:15:40;;;;;;;6.05;3.72;;;25.00;96.70;;;;;;5005461;28;20058;-82
2023/09/30 10:18:12;;;;;;;6.28;4.05;;;25.10;96.70;;;;;;5007114;28;20129;-82
2023/09/30 10:20:48;;;;;;;7.15;3.85;;;25.30;96.70;;;;;;5003711;28;20045;-82
2023/09/30 10:23:27;;;;;;;8.40;3.95;;;25.40;96.70;;;;;;5005977;28;20057;-80
2023/09/30 10:26:15;;;;;;;5.38;3.72;;;25.50;96.70;;;;;;5011023;28;20161;-81
2023/09/30 10:28:46;;;;;;;5.03;3.70;;;25.60;96.70;;;;;;5002921;28;20069;-82
2023/09/30 10:31:17;;;;;;;8.65;5.00;;;25.60;96.70;;;;;;5008215;28;20050;-83
2023/09/30 10:34:20;;;;;;;7.10;3.95;;;25.80;96.70;;;;;;5009569;28;20125;-82
2023/09/30 10:36:52;;;;;;;4.82;4.32;;;25.90;96.70;;;;;;4986323;28;20052;-83
2023/09/30 10:39:58;;;;;;;6.35;4.05;;;25.90;96.70;;;;;;5010914;28;20046;-83
2023/09/30 10:42:49;;;;;;;5.82;3.90;;;26.00;96.70;;;;;;4993530;28;20076;-83
2023/09/30 10:45:44;;;;;;;7.25;3.70;;;26.30;96.70;;;;;;5011116;28;20046;-83
2023/09/30 10:48:35;;;;;;;4.95;4.10;;;26.30;96.70;;;;;;5009354;28;20634;-83
2023/09/30 10:51:20;;;;;;;6.50;4.20;;;26.20;96.70;;;;;;5008644;28;20065;-83
2023/09/30 10:53:56;;;;;;;7.30;3.92;;;26.20;96.70;;;;;;4990056;28;20500;-82
2023/09/30 10:56:31;;;;;;;7.78;3.92;;;26.20;96.70;;;;;;5009351;28;20049;-83
2023/09/30 10:59:01;;;;;;;6.80;3.70;;;26.50;96.70;;;;;;5009192;28;20041;-83
2023/09/30 11:01:34;;;;;;;8.18;4.18;;;26.70;96.70;;;;;;5009327;28;20050;-84
2023/09/30 11:04:05;;;;;;;7.65;3.95;;;26.80;96.70;;;;;;5010039;28;20138;-83
2023/09/30 11:06:34;;;;;;;6.05;3.92;;;27.00;96.70;;;;;;4993497;28;20152;-84
2023/09/30 11:09:03;;;;;;;8.65;4.00;;;27.10;96.70;;;;;;5010067;28;20125;-83
2023/09/30 11:11:35;;;;;;;7.55;4.03;;;27.20;96.70;;;;;;5002819;28;20081;-83
2023/09/30 11:14:05;;;;;;;6.15;3.70;;;27.30;96.70;;;;;;5002370;28;20583;-82
2023/09/30 11:16:44;;;;;;;5.07;4.28;;;27.50;96.70;;;;;;5006686;28;20041;-82
2023/09/30 11:19:13;;;;;;;5.15;4.28;;;27.40;96.70;;;;;;5006704;28;20049;-82
2023/09/30 11:21:41;;;;;;;8.38;4.10;;;27.40;96.70;;;;;;5006382;28;20054;-82
2023/09/30 11:24:10;;;;;;;4.50;3.95;;;27.60;96.70;;;;;;5006481;28;20049;-82
2023/09/30 11:26:43;;;;;;;5.88;3.80;;;27.60;96.70;;;;;;4991271;28;20096;-81
2023/09/30 11:29:16;;;;;;;7.25;3.75;;;27.60;96.70;;;;;;5007733;28;20073;-80
2023/09/30 11:31:47;;;;;;;7.25;3.70;;;27.70;96.70;;;;;;4990084;28;20148;-81
2023/09/30 11:34:16;;;;;;;7.20;3.60;;;27.70;96.70;;;;;;5006875;28;20067;-80
2023/09/30 11:36:49;;;;;;;4.10;3.33;;;27.80;96.70;;;;;;5005456;28;20141;-81
2023/09/30 11:39:25;;;;;;;5.57;3.15;;;28.00;96.70;;;;;;5005825;28;20308;-80
2023/09/30 11:41:55;;;;;;;6.25;3.28;;;28.10;96.70;;;;;;5007551;28;20266;-81
2023/09/30 11:44:23;;;;;;;5.25;3.45;;;28.30;96.70;;;;;;5005758;28;20069;-80
2023/09/30 11:46:55;;;;;;;5.70;3.40;;;28.40;96.70;;;;;;5007655;28;20050;-80
2023/09/30 11:49:28;;;;;;;5.50;3.38;;;28.50;96.70;;;;;;5006269;28;20077;-80
2023/09/30 11:52:00;;;;;;;5.22;3.20;;;28.40;96.70;;;;;;5007482;28;20045;-80
2023/09/30 11:54:31;;;;;;;5.28;3.88;;;28.50;96.70;;;;;;5005683;28;20054;-80
2023/09/30 11:57:01;;;;;;;5.53;3.22;;;28.60;96.70;;;;;;5005932;28;20050;-79
2023/09/30 11:59:29;;;;;;;4.78;3.00;;;28.70;96.70;;;;;;5007997;28;20034;-80
2023/09/30 12:01:59;;;;;;;5.00;3.45;;;28.90;96.70;;;;;;5005682;28;20511;-81
2023/09/30 12:04:41;;;;;;;4.22;3.05;;;29.00;96.70;;;;;;5007129;28;20057;-80
2023/09/30 12:07:10;;;;;;;3.70;3.30;;;29.00;96.70;;;;;;5006216;28;20053;-79
2023/09/30 12:09:39;;;;;;;6.68;3.28;;;29.20;96.70;;;;;;5005787;28;20042;-81
2023/09/30 12:12:14;;;;;;;4.60;3.42;;;29.00;96.70;;;;;;5007136;28;20491;-80
2023/09/30 12:14:42;;;;;;;6.07;3.70;;;29.10;96.70;;;;;;4989418;28;20419;-80
2023/09/30 12:17:14;;;;;;;7.22;3.67;;;29.20;96.70;;;;;;4986256;28;20057;-81
2023/09/30 12:19:42;;;;;;;4.78;4.05;;;29.40;96.70;;;;;;5019518;28;20440;-81
2023/09/30 12:22:10;;;;;;;8.00;3.45;;;29.50;96.70;;;;;;5004385;28;20080;-81
2023/09/30 12:24:39;;;;;;;5.88;3.35;;;29.60;96.70;;;;;;4997803;28;20073;-80
2023/09/30 12:27:29;;;;;;;5.28;3.03;;;29.70;96.70;;;;;;5005726;28;20054;-80
2023/09/30 12:29:57;;;;;;;5.20;3.20;;;29.70;96.70;;;;;;5007114;28;20042;-81
2023/09/30 12:32:27;;;;;;;5.72;3.70;;;29.90;96.70;;;;;;5005334;28;20048;-81
2023/09/30 12:34:55;;;;;;;6.63;3.40;;;30.10;96.70;;;;;;5004980;28;20423;-80
2023/09/30 12:37:23;;;;;;;5.28;3.00;;;30.30;96.70;;;;;;5006404;28;20431;-81
2023/09/30 12:39:52;;;;;;;4.15;2.85;;;30.30;96.70;;;;;;5004922;28;20414;-81
2023/09/30 12:42:20;;;;;;;5.40;3.30;;;30.30;96.70;;;;;;4989275;28;20045;-80
2023/09/30 12:44:48;;;;;;;4.55;3.75;;;30.40;96.70;;;;;;5005432;28;20948;-81
2023/09/30 12:47:16;;;;;;;4.70;3.30;;;30.40;96.70;;;;;;5004840;28;20456;-80
2023/09/30 12:49:46;;;;;;;6.75;3.20;;;30.40;96.70;;;;;;5006604;28;20554;-81
2023/09/30 12:52:14;;;;;;;4.97;3.03;;;30.50;96.70;;;;;;5006377;28;20038;-82
2023/09/30 12:54:42;;;;;;;4.40;3.30;;;30.50;96.70;;;;;;5004994;28;20865;-82
2023/09/30 12:57:13;;;;;;;5.18;3.60;;;30.50;96.70;;;;;;4988921;28;20522;-80